Time;durP1;ratioP1;P1;durP2;ratioP2;P2;SDS_P1;SDS_P2;PMS_P1;PMS_P2;Temp;Humidity;BMP_temperature;BMP_pressure;BME280_temperature;BME280_humidity;BME280_pressure;Samples;Min_cycle;Max_cycle;Signal;HPM_P1;HPM_P2
2022/03/05 00:00:43;;;;;;;10.90;5.20;;;0.00;97.30;;;;;;5059070;28;20418;-81
2022/03/05 00:03:09;;;;;;;14.70;5.37;;;-0.10;97.30;;;;;;5058615;28;20422;-81
2022/03/05 00:05:35;;;;;;;10.60;5.10;;;-0.10;97.30;;;;;;5059037;28;20481;-81
2022/03/05 00:08:00;;;;;;;14.27;5.00;;;-0.20;97.30;;;;;;5040922;28;20422;-81
2022/03/05 00:10:26;;;;;;;10.87;5.00;;;-0.20;97.30;;;;;;5039017;28;20203;-80
2022/03/05 00:12:52;;;;;;;24.37;5.90;;;-0.20;97.30;;;;;;5039025;28;20172;-81
2022/03/05 00:15:20;;;;;;;15.03;5.93;;;-0.30;97.30;;;;;;5055659;28;20456;-80
2022/03/05 00:17:47;;;;;;;12.53;5.93;;;-0.30;97.30;;;;;;5039223;28;20418;-80
2022/03/05 00:20:13;;;;;;;13.37;5.63;;;-0.30;97.30;;;;;;5038467;28;20433;-81
2022/03/05 00:22:39;;;;;;;12.20;5.40;;;-0.40;97.30;;;;;;5038921;28;20413;-81
2022/03/05 00:25:05;;;;;;;16.30;5.90;;;-0.40;97.30;;;;;;5039262;28;21078;-81
2022/03/05 00:27:31;;;;;;;13.50;5.70;;;-0.40;97.30;;;;;;5039576;28;20191;-81
2022/03/05 00:29:57;;;;;;;13.93;5.77;;;-0.40;97.30;;;;;;5039031;28;20838;-81
2022/03/05 00:32:22;;;;;;;21.87;6.97;;;-0.50;97.30;;;;;;5038969;28;20418;-81
2022/03/05 00:34:48;;;;;;;17.13;5.30;;;-0.50;97.30;;;;;;5039335;28;20204;-81
2022/03/05 00:37:13;;;;;;;10.77;4.80;;;-0.50;97.30;;;;;;5056993;28;20175;-81
2022/03/05 00:39:39;;;;;;;12.57;5.43;;;-0.60;97.30;;;;;;5039637;28;20184;-81
2022/03/05 00:42:05;;;;;;;15.57;5.80;;;-0.60;97.30;;;;;;5058199;28;20183;-81
2022/03/05 00:44:32;;;;;;;10.27;4.20;;;-0.70;97.30;;;;;;5076325;28;20259;-81
2022/03/05 00:46:58;;;;;;;11.93;5.80;;;-0.70;97.30;;;;;;5059699;28;20434;-81
2022/03/05 00:49:23;;;;;;;12.60;4.70;;;-0.80;97.30;;;;;;5059152;28;20449;-78
2022/03/05 00:51:49;;;;;;;11.20;5.70;;;-0.80;97.30;;;;;;5079296;28;20261;-80
2022/03/05 00:54:15;;;;;;;10.07;5.73;;;-0.90;97.30;;;;;;5082406;28;20183;-81
2022/03/05 00:56:41;;;;;;;11.87;5.23;;;-0.90;97.30;;;;;;5080348;28;20417;-81
2022/03/05 00:59:06;;;;;;;11.30;5.27;;;-1.00;97.30;;;;;;5080705;28;20179;-81
2022/03/05 01:01:32;;;;;;;17.07;5.67;;;-1.00;97.30;;;;;;5081181;28;20178;-81
2022/03/05 01:03:57;;;;;;;11.70;4.87;;;-1.00;97.30;;;;;;5080218;28;20176;-81
2022/03/05 01:06:23;;;;;;;12.30;5.40;;;-1.10;97.30;;;;;;5063529;28;20239;-81
2022/03/05 01:08:49;;;;;;;8.33;4.13;;;-1.10;97.30;;;;;;5080671;28;20422;-81
2022/03/05 01:11:17;;;;;;;11.03;4.60;;;-1.10;97.30;;;;;;5081550;28;20689;-80
2022/03/05 01:13:44;;;;;;;8.17;3.97;;;-1.10;97.30;;;;;;5079635;28;20182;-81
2022/03/05 01:16:09;;;;;;;17.57;5.33;;;-1.10;97.30;;;;;;5062326;28;20444;-81
2022/03/05 01:18:35;;;;;;;18.23;6.40;;;-1.10;97.30;;;;;;5080127;28;20409;-81
2022/03/05 01:21:00;;;;;;;14.80;5.40;;;-1.00;97.30;;;;;;5079276;28;20246;-81
2022/03/05 01:23:26;;;;;;;12.70;5.07;;;-1.00;97.30;;;;;;5062494;28;20183;-81
2022/03/05 01:25:51;;;;;;;11.50;5.27;;;-1.00;97.30;;;;;;5062253;28;20198;-81
2022/03/05 01:28:17;;;;;;;12.00;6.07;;;-0.90;97.30;;;;;;5080396;28;20622;-81
2022/03/05 01:30:42;;;;;;;16.33;5.83;;;-0.90;97.30;;;;;;5062313;28;20214;-81
2022/03/05 01:33:08;;;;;;;16.93;5.80;;;-0.90;97.30;;;;;;5078610;28;20175;-81
2022/03/05 01:35:33;;;;;;;14.77;5.97;;;-0.80;97.30;;;;;;5065625;28;20844;-81
2022/03/05 01:37:59;;;;;;;19.90;6.00;;;-0.80;97.30;;;;;;5042461;28;20190;-81
2022/03/05 01:40:25;;;;;;;10.83;4.60;;;-0.80;97.30;;;;;;5043838;28;20203;-81
2022/03/05 01:42:50;;;;;;;10.87;5.10;;;-0.80;97.30;;;;;;5042197;28;20183;-81
2022/03/05 01:45:16;;;;;;;12.50;5.60;;;-0.80;97.30;;;;;;5042979;28;20223;-81
2022/03/05 01:47:42;;;;;;;18.27;6.83;;;-0.70;97.30;;;;;;5042345;28;20204;-81
2022/03/05 01:50:09;;;;;;;12.73;4.90;;;-0.80;97.30;;;;;;5042235;28;20258;-81
2022/03/05 01:52:34;;;;;;;12.50;5.40;;;-0.70;97.30;;;;;;5042677;28;20418;-81
2022/03/05 01:55:01;;;;;;;17.50;5.70;;;-0.80;97.30;;;;;;5042420;28;20442;-81
2022/03/05 01:57:26;;;;;;;11.97;5.50;;;-0.80;97.30;;;;;;5042035;28;20414;-81
2022/03/05 01:59:53;;;;;;;9.80;5.33;;;-0.70;97.30;;;;;;5041747;28;20429;-81
2022/03/05 02:02:18;;;;;;;8.77;4.73;;;-0.70;97.30;;;;;;5040863;28;20211;-81
2022/03/05 02:04:44;;;;;;;12.00;5.27;;;-0.70;97.30;;;;;;5041178;28;20465;-81
2022/03/05 02:07:10;;;;;;;12.20;4.87;;;-0.70;97.30;;;;;;5041555;28;20765;-81
2022/03/05 02:09:35;;;;;;;11.87;5.10;;;-0.60;97.30;;;;;;5041399;28;20227;-81
2022/03/05 02:12:01;;;;;;;10.07;4.67;;;-0.60;97.30;;;;;;5041154;28;20531;-81
2022/03/05 02:14:27;;;;;;;9.90;4.60;;;-0.60;97.30;;;;;;5041228;28;20610;-81
2022/03/05 02:16:53;;;;;;;9.50;4.63;;;-0.60;97.30;;;;;;5041445;28;20504;-81
2022/03/05 02:19:18;;;;;;;12.80;5.47;;;-0.50;97.30;;;;;;5041732;28;20270;-81
2022/03/05 02:21:47;;;;;;;6.70;4.50;;;-0.50;97.30;;;;;;5041737;28;20470;-81
2022/03/05 02:24:31;;;;;;;15.43;4.83;;;-0.50;97.30;;;;;;5041355;28;20266;-81
2022/03/05 02:27:03;;;;;;;12.30;5.20;;;-0.40;97.30;;;;;;5059325;28;20410;-81
2022/03/05 02:29:31;;;;;;;9.20;4.20;;;-0.40;97.30;;;;;;5059293;28;20458;-81
2022/03/05 02:31:57;;;;;;;9.73;4.07;;;-0.40;97.30;;;;;;5041544;28;20410;-81
2022/03/05 02:34:23;;;;;;;7.80;3.93;;;-0.40;97.30;;;;;;5041942;28;20468;-81
2022/03/05 02:36:48;;;;;;;7.03;4.07;;;-0.40;97.30;;;;;;5059480;28;20598;-81
2022/03/05 02:39:14;;;;;;;10.50;4.27;;;-0.40;97.30;;;;;;5041590;28;20434;-81
2022/03/05 02:41:39;;;;;;;6.50;3.90;;;-0.30;97.30;;;;;;5037300;28;20274;-81
2022/03/05 02:44:05;;;;;;;10.27;4.50;;;-0.30;97.30;;;;;;5021420;28;20180;-81
2022/03/05 02:46:33;;;;;;;13.00;4.03;;;-0.30;97.30;;;;;;5020966;28;20232;-81
2022/03/05 02:49:03;;;;;;;9.27;4.10;;;-0.30;97.30;;;;;;5021060;28;20442;-81
2022/03/05 02:51:31;;;;;;;8.20;4.30;;;-0.20;97.30;;;;;;5021223;28;20984;-81
2022/03/05 02:53:57;;;;;;;6.80;4.17;;;-0.20;97.30;;;;;;5021156;28;20420;-81
2022/03/05 02:56:22;;;;;;;7.50;4.50;;;-0.20;97.30;;;;;;5038575;28;20427;-81
2022/03/05 02:58:48;;;;;;;13.70;4.67;;;-0.20;97.30;;;;;;5020473;28;20184;-81
2022/03/05 03:01:14;;;;;;;15.13;5.40;;;-0.20;97.30;;;;;;5038467;28;20184;-81
2022/03/05 03:03:41;;;;;;;10.10;5.07;;;-0.20;97.30;;;;;;5020749;28;20184;-81
2022/03/05 03:06:07;;;;;;;9.07;4.93;;;-0.30;97.30;;;;;;5020240;28;20228;-81
2022/03/05 03:08:32;;;;;;;7.27;4.53;;;-0.30;97.30;;;;;;5020594;28;20506;-81
2022/03/05 03:10:58;;;;;;;8.80;4.67;;;-0.30;97.30;;;;;;5038327;28;20270;-81
2022/03/05 03:13:24;;;;;;;8.10;4.80;;;-0.40;97.30;;;;;;5037678;28;20636;-81
2022/03/05 03:15:50;;;;;;;11.20;4.70;;;-0.40;97.30;;;;;;5020224;28;20435;-81
2022/03/05 03:18:19;;;;;;;12.40;5.20;;;-0.40;97.30;;;;;;5020426;28;20184;-81
2022/03/05 03:20:45;;;;;;;9.93;5.70;;;-0.50;97.30;;;;;;5020011;28;20187;-81
2022/03/05 03:23:11;;;;;;;13.77;6.03;;;-0.50;97.30;;;;;;5038608;28;20423;-81
2022/03/05 03:25:40;;;;;;;13.83;6.77;;;-0.60;97.30;;;;;;5037890;28;20442;-81
2022/03/05 03:28:06;;;;;;;12.13;6.40;;;-0.60;97.30;;;;;;5037499;28;20422;-81
2022/03/05 03:30:32;;;;;;;12.10;6.63;;;-0.60;97.30;;;;;;5038863;28;20457;-81
2022/03/05 03:32:57;;;;;;;18.37;6.77;;;-0.70;97.30;;;;;;5019984;28;20509;-81
2022/03/05 03:35:23;;;;;;;11.50;6.07;;;-0.70;97.30;;;;;;5020643;28;20227;-80
2022/03/05 03:37:49;;;;;;;18.17;7.30;;;-0.70;97.30;;;;;;5020201;28;20173;-81
2022/03/05 03:40:16;;;;;;;20.33;8.23;;;-0.70;97.30;;;;;;5022634;28;20178;-81
2022/03/05 03:42:43;;;;;;;15.57;6.97;;;-0.80;97.30;;;;;;5058108;28;20438;-81
2022/03/05 03:45:10;;;;;;;10.93;6.80;;;-0.80;97.30;;;;;;5040167;28;20466;-81
2022/03/05 03:47:36;;;;;;;17.47;7.80;;;-0.80;97.30;;;;;;5039458;28;20422;-80
2022/03/05 03:50:05;;;;;;;15.40;6.53;;;-0.80;97.30;;;;;;5039436;28;20469;-81
2022/03/05 03:52:31;;;;;;;16.23;7.80;;;-0.90;97.30;;;;;;5039563;28;20424;-80
2022/03/05 03:54:56;;;;;;;15.40;7.90;;;-0.90;97.30;;;;;;5038993;28;20741;-81
2022/03/05 03:57:22;;;;;;;16.40;7.83;;;-1.00;97.30;;;;;;5037431;28;20452;-81
2022/03/05 03:59:51;;;;;;;18.87;8.03;;;-1.00;97.30;;;;;;5055614;28;20243;-81
2022/03/05 04:02:17;;;;;;;11.63;6.53;;;-1.00;97.30;;;;;;5037172;28;20218;-81
2022/03/05 04:04:43;;;;;;;12.57;7.10;;;-1.10;97.30;;;;;;5036648;28;20478;-80
2022/03/05 04:09:52;;;;;;;14.93;6.73;;;-1.10;97.30;;;;;;5054781;28;20246;-81
2022/03/05 04:12:18;;;;;;;16.20;7.70;;;-1.20;97.30;;;;;;5036656;28;20419;-80
2022/03/05 04:14:44;;;;;;;17.67;8.07;;;-1.20;97.30;;;;;;5037320;28;20580;-81
2022/03/05 04:17:09;;;;;;;17.30;8.20;;;-1.20;97.30;;;;;;5056076;28;20191;-81
2022/03/05 04:19:35;;;;;;;19.60;7.53;;;-1.30;97.30;;;;;;5037101;28;20425;-81
2022/03/05 04:22:01;;;;;;;17.50;7.43;;;-1.30;97.30;;;;;;5055059;28;20183;-80
2022/03/05 04:24:27;;;;;;;16.20;6.90;;;-1.30;97.30;;;;;;5056547;28;20191;-81
2022/03/05 04:26:52;;;;;;;16.37;7.70;;;-1.40;97.30;;;;;;5059191;28;20410;-81
2022/03/05 04:29:18;;;;;;;20.27;9.13;;;-1.40;97.30;;;;;;5059480;28;20676;-81
2022/03/05 04:31:43;;;;;;;17.23;7.80;;;-1.50;97.30;;;;;;5041500;28;20171;-81
2022/03/05 04:34:08;;;;;;;22.90;8.73;;;-1.60;97.30;;;;;;5059826;28;20198;-81
2022/03/05 04:36:34;;;;;;;15.30;7.70;;;-1.60;97.30;;;;;;5042241;28;20241;-81
2022/03/05 04:38:59;;;;;;;15.53;8.33;;;-1.70;97.30;;;;;;5042063;28;20203;-81
2022/03/05 04:41:25;;;;;;;21.97;9.20;;;-1.70;97.30;;;;;;5042010;28;20609;-81
2022/03/05 04:43:50;;;;;;;23.50;9.40;;;-1.80;97.30;;;;;;5041641;28;20197;-81
2022/03/05 04:46:16;;;;;;;14.67;8.40;;;-1.80;97.30;;;;;;5042057;28;20203;-81
2022/03/05 04:48:41;;;;;;;23.17;8.30;;;-1.90;97.30;;;;;;5060144;28;20681;-81
2022/03/05 04:51:07;;;;;;;17.83;7.70;;;-1.90;97.30;;;;;;5042158;28;20649;-81
2022/03/05 04:53:34;;;;;;;12.27;6.73;;;-1.90;97.30;;;;;;5059250;28;20222;-81
2022/03/05 04:55:59;;;;;;;22.00;7.53;;;-1.90;97.30;;;;;;5042240;28;20191;-81
2022/03/05 04:58:25;;;;;;;19.73;8.77;;;-1.90;97.30;;;;;;5042301;28;20417;-81
2022/03/05 05:00:51;;;;;;;19.03;8.40;;;-1.90;97.30;;;;;;5042040;28;20179;-81
2022/03/05 05:03:16;;;;;;;14.20;7.83;;;-1.90;97.30;;;;;;5060699;28;20168;-81
2022/03/05 05:05:42;;;;;;;17.23;8.73;;;-1.90;97.30;;;;;;5041459;28;20241;-81
2022/03/05 05:08:07;;;;;;;17.33;8.00;;;-2.00;97.30;;;;;;5059435;28;20247;-81
2022/03/05 05:10:33;;;;;;;16.03;7.80;;;-1.90;97.30;;;;;;5042828;28;20248;-81
2022/03/05 05:12:59;;;;;;;21.30;7.80;;;-2.00;97.30;;;;;;5041224;28;20572;-81
2022/03/05 05:15:24;;;;;;;21.40;7.87;;;-2.10;97.30;;;;;;5059154;28;20426;-81
2022/03/05 05:17:50;;;;;;;12.53;6.97;;;-2.10;97.30;;;;;;5060304;28;20172;-81
2022/03/05 05:20:16;;;;;;;16.57;7.40;;;-2.10;97.30;;;;;;5040878;28;20187;-81
2022/03/05 05:22:41;;;;;;;16.67;7.07;;;-2.10;97.30;;;;;;5042521;28;20206;-81
2022/03/05 05:25:07;;;;;;;14.83;6.83;;;-2.10;97.30;;;;;;5042256;28;20263;-81
2022/03/05 05:27:37;;;;;;;19.80;8.13;;;-2.10;97.30;;;;;;5041764;28;20243;-82
2022/03/05 05:30:04;;;;;;;18.90;7.63;;;-2.10;97.30;;;;;;5041538;28;20470;-81
2022/03/05 05:32:29;;;;;;;16.87;7.87;;;-2.10;97.30;;;;;;5042093;28;20414;-82
2022/03/05 05:34:55;;;;;;;17.57;7.20;;;-2.10;97.30;;;;;;5041263;28;20457;-81
2022/03/05 05:37:20;;;;;;;16.77;7.60;;;-2.20;97.30;;;;;;5057537;28;20635;-82
2022/03/05 05:39:46;;;;;;;18.93;8.90;;;-2.20;97.30;;;;;;5058681;28;20670;-81
2022/03/05 05:42:12;;;;;;;21.30;8.10;;;-2.20;97.30;;;;;;5058590;28;20253;-82
2022/03/05 05:44:37;;;;;;;19.43;7.30;;;-2.30;97.30;;;;;;5059709;28;20203;-82
2022/03/05 05:47:03;;;;;;;18.40;7.77;;;-2.30;97.30;;;;;;5042509;28;20180;-82
2022/03/05 05:49:29;;;;;;;19.07;7.53;;;-2.30;97.30;;;;;;5041131;28;20260;-82
2022/03/05 05:51:54;;;;;;;14.73;7.07;;;-2.30;97.30;;;;;;5041949;28;20556;-82
2022/03/05 05:54:20;;;;;;;14.37;7.33;;;-2.30;97.30;;;;;;5041538;28;20180;-82
2022/03/05 05:56:45;;;;;;;13.27;7.67;;;-2.30;97.30;;;;;;5041325;28;20172;-82
2022/03/05 05:59:11;;;;;;;13.13;7.17;;;-2.30;97.30;;;;;;5042157;28;20203;-82
2022/03/05 06:01:36;;;;;;;13.43;7.47;;;-2.30;97.30;;;;;;5040892;28;20179;-82
2022/03/05 06:04:02;;;;;;;15.53;7.30;;;-2.30;97.30;;;;;;5040867;28;20172;-82
2022/03/05 06:06:28;;;;;;;10.80;6.30;;;-2.40;97.30;;;;;;5041260;28;20302;-82
2022/03/05 06:08:53;;;;;;;21.10;8.17;;;-2.40;97.30;;;;;;5041659;28;20279;-82
2022/03/05 06:11:19;;;;;;;17.53;8.90;;;-2.40;97.30;;;;;;5040506;28;20506;-82
2022/03/05 06:13:45;;;;;;;22.43;9.00;;;-2.40;97.30;;;;;;5041817;28;20180;-82
2022/03/05 06:16:11;;;;;;;29.50;10.03;;;-2.40;97.30;;;;;;5041311;28;20199;-82
2022/03/05 06:18:37;;;;;;;16.37;8.60;;;-2.40;97.30;;;;;;5041086;28;20188;-82
2022/03/05 06:21:05;;;;;;;21.40;8.00;;;-2.40;97.30;;;;;;5040434;28;20509;-82
2022/03/05 06:23:31;;;;;;;20.50;8.87;;;-2.30;97.30;;;;;;5040691;28;20813;-82
2022/03/05 06:25:57;;;;;;;18.07;8.10;;;-2.30;97.30;;;;;;5040501;28;20451;-82
2022/03/05 06:28:22;;;;;;;19.90;9.17;;;-2.20;97.30;;;;;;5040851;28;20419;-82
2022/03/05 06:30:48;;;;;;;17.03;8.23;;;-2.20;97.30;;;;;;5040384;28;20310;-82
2022/03/05 06:33:13;;;;;;;16.83;8.10;;;-2.10;97.30;;;;;;5040399;28;20176;-82
2022/03/05 06:35:39;;;;;;;30.23;13.87;;;-2.10;97.30;;;;;;5039123;28;20192;-82
2022/03/05 06:38:04;;;;;;;19.63;8.77;;;-2.00;97.30;;;;;;5057127;28;20183;-82
2022/03/05 06:40:30;;;;;;;20.13;9.10;;;-2.00;97.30;;;;;;5057200;28;20191;-82
2022/03/05 06:42:55;;;;;;;16.60;8.20;;;-1.90;97.30;;;;;;5039881;28;20182;-82
2022/03/05 06:45:23;;;;;;;19.67;8.97;;;-1.80;97.30;;;;;;5056743;28;20745;-82
2022/03/05 06:47:57;;;;;;;13.40;7.83;;;-1.70;97.30;;;;;;5039280;28;20274;-82
2022/03/05 06:50:24;;;;;;;18.37;8.03;;;-1.60;97.30;;;;;;5035177;28;20450;-82
2022/03/05 06:52:58;;;;;;;24.60;8.77;;;-1.50;97.30;;;;;;5038417;28;20430;-82
2022/03/05 06:55:23;;;;;;;17.03;7.87;;;-1.40;97.30;;;;;;5039168;28;20440;-82
2022/03/05 06:57:51;;;;;;;22.80;8.03;;;-1.30;97.30;;;;;;5040033;28;20852;-82
2022/03/05 07:00:17;;;;;;;12.13;6.77;;;-1.20;97.30;;;;;;5040363;28;20186;-82
2022/03/05 07:02:43;;;;;;;17.23;8.30;;;-1.00;97.30;;;;;;5058437;28;20415;-82
2022/03/05 07:05:10;;;;;;;16.97;6.50;;;-0.90;97.30;;;;;;5048795;28;20469;-82
2022/03/05 07:07:36;;;;;;;17.63;8.00;;;-0.80;97.30;;;;;;5038426;28;20179;-82
2022/03/05 07:10:05;;;;;;;18.33;7.83;;;-0.70;97.30;;;;;;5057371;28;20462;-82
2022/03/05 07:12:31;;;;;;;18.53;7.40;;;-0.60;97.30;;;;;;5036315;28;20421;-82
2022/03/05 07:14:58;;;;;;;15.43;6.97;;;-0.50;97.30;;;;;;5038612;28;20848;-82
2022/03/05 07:17:23;;;;;;;15.77;7.97;;;-0.40;97.30;;;;;;5038373;28;20426;-82
2022/03/05 07:19:50;;;;;;;13.30;7.00;;;-0.30;97.30;;;;;;5035694;28;20411;-81
2022/03/05 07:22:16;;;;;;;10.73;7.17;;;-0.20;97.30;;;;;;5037428;28;20183;-81
2022/03/05 07:24:41;;;;;;;14.30;6.63;;;-0.10;97.30;;;;;;5055942;28;20444;-81
2022/03/05 07:27:07;;;;;;;13.63;6.53;;;-0.10;97.30;;;;;;5054332;28;20698;-81
2022/03/05 07:29:32;;;;;;;15.97;6.43;;;0.00;97.30;;;;;;5037286;28;20208;-81
2022/03/05 07:31:58;;;;;;;11.83;6.03;;;0.10;97.30;;;;;;5036375;28;20201;-81
2022/03/05 07:34:24;;;;;;;13.93;6.53;;;0.10;97.30;;;;;;5038649;28;20573;-81
2022/03/05 07:36:50;;;;;;;17.60;7.80;;;0.20;97.30;;;;;;5034605;28;20172;-80
2022/03/05 07:39:16;;;;;;;14.93;6.20;;;0.30;97.30;;;;;;5032394;28;20423;-77
2022/03/05 07:41:42;;;;;;;11.83;6.10;;;0.30;97.30;;;;;;5032124;28;20438;-77
2022/03/05 07:44:08;;;;;;;13.70;6.10;;;0.40;97.30;;;;;;5050710;28;20421;-80
2022/03/05 07:46:36;;;;;;;9.70;5.17;;;0.50;97.30;;;;;;5073287;28;20413;-80
2022/03/05 07:49:01;;;;;;;13.30;5.90;;;0.60;97.30;;;;;;5074589;28;20167;-80
2022/03/05 07:51:27;;;;;;;14.97;6.50;;;0.70;97.30;;;;;;5072593;28;20459;-80
2022/03/05 07:53:53;;;;;;;12.40;6.20;;;0.80;97.30;;;;;;5076449;28;20221;-80
2022/03/05 07:56:19;;;;;;;11.53;5.97;;;0.90;97.30;;;;;;5058082;28;20206;-80
2022/03/05 07:58:46;;;;;;;9.10;5.10;;;1.00;97.30;;;;;;5058449;28;20638;-80
2022/03/05 08:01:14;;;;;;;18.53;7.00;;;1.10;97.30;;;;;;5058457;28;20418;-79
2022/03/05 08:03:40;;;;;;;13.40;6.83;;;1.10;97.30;;;;;;5075591;28;20437;-81
2022/03/05 08:06:05;;;;;;;12.00;5.80;;;1.30;97.30;;;;;;5075421;28;20476;-80
2022/03/05 08:08:31;;;;;;;11.67;5.97;;;1.40;97.30;;;;;;5058687;28;20552;-80
2022/03/05 08:10:57;;;;;;;11.33;5.77;;;1.50;97.30;;;;;;5075736;28;20287;-81
2022/03/05 08:13:22;;;;;;;10.10;5.30;;;1.60;97.30;;;;;;5076009;28;20182;-81
2022/03/05 08:15:49;;;;;;;17.33;6.17;;;1.70;97.30;;;;;;5075984;28;20195;-81
2022/03/05 08:18:14;;;;;;;19.33;6.13;;;1.80;97.30;;;;;;5059549;28;20175;-81
2022/03/05 08:20:40;;;;;;;10.60;6.30;;;1.90;97.30;;;;;;5076888;28;20418;-81
2022/03/05 08:23:06;;;;;;;10.30;6.70;;;2.00;97.30;;;;;;5076222;28;20175;-81
2022/03/05 08:25:31;;;;;;;14.43;7.00;;;2.20;97.30;;;;;;5058962;28;20199;-80
2022/03/05 08:27:57;;;;;;;15.20;6.97;;;2.30;97.30;;;;;;5075525;28;20634;-81
2022/03/05 08:30:23;;;;;;;10.83;5.53;;;2.50;97.30;;;;;;5074755;28;20199;-81
2022/03/05 08:32:48;;;;;;;16.77;5.97;;;2.60;97.30;;;;;;5058385;28;20175;-81
2022/03/05 08:35:15;;;;;;;13.87;6.33;;;2.70;97.30;;;;;;5075865;28;20190;-81
2022/03/05 08:37:41;;;;;;;10.87;6.73;;;2.80;97.30;;;;;;5050296;28;20174;-81
2022/03/05 08:40:12;;;;;;;12.70;6.17;;;2.90;97.30;;;;;;5065631;28;20678;-81
2022/03/05 08:42:38;;;;;;;13.47;6.10;;;3.00;97.30;;;;;;5054657;28;20443;-81
2022/03/05 08:45:05;;;;;;;10.87;5.90;;;3.20;97.30;;;;;;5081591;28;21017;-81
2022/03/05 08:47:34;;;;;;;14.80;6.37;;;3.40;97.30;;;;;;5056686;28;20426;-81
2022/03/05 08:50:00;;;;;;;10.20;6.37;;;3.50;97.30;;;;;;5065315;28;20454;-81
2022/03/05 08:52:25;;;;;;;13.73;5.83;;;3.60;97.30;;;;;;5061990;28;20494;-81
2022/03/05 08:54:51;;;;;;;10.80;5.20;;;3.70;97.30;;;;;;5048689;28;20434;-81
2022/03/05 08:57:16;;;;;;;23.93;6.60;;;3.90;97.30;;;;;;5058426;28;20195;-80
2022/03/05 08:59:42;;;;;;;10.07;4.80;;;4.00;97.30;;;;;;5040597;28;20183;-79
2022/03/05 09:02:08;;;;;;;14.47;6.23;;;4.10;97.30;;;;;;5031332;28;20186;-80
2022/03/05 09:04:34;;;;;;;13.03;6.63;;;4.10;97.30;;;;;;5079550;28;20226;-79
2022/03/05 09:06:59;;;;;;;14.27;4.97;;;4.20;97.30;;;;;;5079763;28;20519;-79
2022/03/05 09:09:25;;;;;;;8.43;5.10;;;4.30;97.30;;;;;;5063217;28;20179;-80
2022/03/05 09:11:51;;;;;;;12.80;4.83;;;4.30;97.30;;;;;;5067508;28;20172;-80
2022/03/05 09:14:16;;;;;;;10.97;5.73;;;4.30;97.30;;;;;;5064217;28;20239;-80
2022/03/05 09:16:42;;;;;;;10.23;5.30;;;4.40;96.90;;;;;;5046285;28;20443;-79
2022/03/05 09:19:08;;;;;;;7.40;4.37;;;4.40;96.90;;;;;;5046131;28;20233;-79
2022/03/05 09:21:35;;;;;;;12.10;4.87;;;4.50;96.50;;;;;;5063111;28;20183;-79
2022/03/05 09:24:05;;;;;;;11.53;4.50;;;4.50;95.80;;;;;;5063046;28;20422;-79
2022/03/05 09:26:32;;;;;;;13.47;4.63;;;4.50;95.40;;;;;;5061983;28;20423;-80
2022/03/05 09:28:57;;;;;;;14.77;6.10;;;4.40;94.50;;;;;;5058557;28;20429;-80
2022/03/05 09:31:23;;;;;;;8.70;5.50;;;4.40;95.10;;;;;;5080665;28;20457;-80
2022/03/05 09:33:48;;;;;;;9.40;4.80;;;4.50;96.00;;;;;;5081499;28;20183;-80
2022/03/05 09:36:14;;;;;;;7.50;4.70;;;4.70;96.20;;;;;;5081908;28;20791;-80
2022/03/05 09:38:39;;;;;;;10.10;4.30;;;4.80;95.70;;;;;;5082186;28;20236;-80
2022/03/05 09:41:07;;;;;;;11.23;5.27;;;4.90;95.50;;;;;;5081849;28;20171;-80
2022/03/05 09:43:33;;;;;;;15.40;6.20;;;4.90;95.20;;;;;;5064711;28;20259;-80
2022/03/05 09:46:00;;;;;;;9.67;5.67;;;5.00;95.40;;;;;;5064922;28;20476;-80
2022/03/05 09:48:29;;;;;;;8.67;4.67;;;5.10;95.10;;;;;;5064899;28;20413;-80
2022/03/05 09:50:56;;;;;;;10.80;5.23;;;5.10;95.10;;;;;;5064471;28;20509;-80
2022/03/05 09:53:28;;;;;;;10.53;4.70;;;5.00;94.20;;;;;;5064257;28;20990;-80
2022/03/05 09:55:53;;;;;;;11.07;4.83;;;5.10;94.10;;;;;;5063681;28;20815;-80
2022/03/05 09:58:19;;;;;;;9.40;4.70;;;5.20;94.40;;;;;;5080798;28;20415;-80
2022/03/05 10:00:44;;;;;;;9.03;4.50;;;5.20;93.60;;;;;;5081295;28;20179;-80
2022/03/05 10:03:14;;;;;;;8.07;3.90;;;5.30;94.20;;;;;;5064266;28;20179;-80
2022/03/05 10:05:40;;;;;;;11.03;4.97;;;5.50;93.50;;;;;;5038070;28;20239;-80
2022/03/05 10:08:09;;;;;;;12.43;5.37;;;5.50;92.90;;;;;;5054773;28;20422;-80
2022/03/05 10:10:44;;;;;;;13.10;5.70;;;5.60;92.70;;;;;;5054718;28;20462;-80
2022/03/05 10:13:31;;;;;;;10.63;5.30;;;5.60;92.40;;;;;;5055821;28;20418;-80
2022/03/05 10:16:05;;;;;;;8.00;4.90;;;5.70;91.90;;;;;;5055199;28;20478;-80
2022/03/05 10:18:33;;;;;;;9.97;4.50;;;5.80;91.90;;;;;;5058135;28;20422;-79
2022/03/05 10:21:01;;;;;;;8.40;4.17;;;5.90;92.00;;;;;;5060415;28;20487;-80
2022/03/05 10:23:30;;;;;;;4.07;3.17;;;6.00;92.40;;;;;;5060411;28;20423;-80
2022/03/05 10:25:55;;;;;;;6.30;4.13;;;6.20;92.30;;;;;;5061397;28;21020;-80
2022/03/05 10:28:27;;;;;;;10.93;4.83;;;6.40;91.70;;;;;;5044327;28;20458;-80
2022/03/05 10:30:53;;;;;;;7.57;3.83;;;6.40;91.30;;;;;;5061336;28;20227;-80
2022/03/05 10:33:40;;;;;;;10.43;4.73;;;6.40;91.80;;;;;;5061931;28;20418;-80
2022/03/05 10:36:08;;;;;;;11.97;4.43;;;6.50;91.60;;;;;;5058567;28;20522;-80
2022/03/05 10:38:52;;;;;;;6.40;3.40;;;6.60;91.80;;;;;;5042871;28;20505;-80
2022/03/05 10:41:21;;;;;;;6.17;3.20;;;6.80;91.60;;;;;;5042541;28;20425;-80
2022/03/05 10:44:23;;;;;;;7.93;3.93;;;6.90;90.40;;;;;;5041571;28;20425;-81
2022/03/05 10:47:00;;;;;;;6.33;3.80;;;7.10;90.10;;;;;;5040431;28;20422;-80
2022/03/05 10:49:27;;;;;;;4.93;3.63;;;7.20;90.30;;;;;;5040879;28;20429;-81
2022/03/05 10:52:06;;;;;;;7.43;3.70;;;7.20;89.70;;;;;;5040517;28;20784;-81
2022/03/05 10:54:39;;;;;;;8.70;4.40;;;7.20;89.40;;;;;;5058282;28;20423;-80
2022/03/05 10:57:11;;;;;;;8.80;3.70;;;7.20;89.50;;;;;;5042102;28;20769;-80
2022/03/05 10:59:42;;;;;;;10.30;4.10;;;7.30;89.80;;;;;;5058212;28;20425;-80
2022/03/05 11:02:08;;;;;;;6.30;3.80;;;7.50;89.20;;;;;;5044963;28;20434;-80
2022/03/05 11:04:37;;;;;;;7.77;4.23;;;7.50;88.60;;;;;;5041684;28;20468;-80
2022/03/05 11:07:05;;;;;;;6.20;3.70;;;7.30;88.30;;;;;;5042116;28;21065;-80
2022/03/05 11:09:32;;;;;;;8.00;4.20;;;7.00;88.70;;;;;;5041987;28;20414;-80
2022/03/05 11:12:01;;;;;;;5.80;3.93;;;6.80;89.10;;;;;;5041393;28;20415;-80
2022/03/05 11:14:27;;;;;;;6.37;3.30;;;6.60;89.20;;;;;;5041433;28;20472;-80
2022/03/05 11:16:53;;;;;;;8.87;4.40;;;6.50;89.50;;;;;;5040723;28;20418;-80
2022/03/05 11:19:24;;;;;;;11.40;4.83;;;6.40;90.30;;;;;;5041196;28;20547;-79
2022/03/05 11:21:50;;;;;;;8.03;4.30;;;6.40;90.30;;;;;;5040891;28;20509;-80
2022/03/05 11:24:18;;;;;;;7.17;4.13;;;6.40;89.50;;;;;;5040962;28;20414;-80
2022/03/05 11:26:48;;;;;;;9.87;4.40;;;6.70;90.70;;;;;;5042368;28;20476;-80
2022/03/05 11:29:16;;;;;;;8.00;4.00;;;7.00;90.10;;;;;;5041558;28;20403;-80
2022/03/05 11:31:42;;;;;;;6.07;4.10;;;7.10;89.10;;;;;;5041947;28;20837;-80
2022/03/05 11:34:10;;;;;;;14.13;4.10;;;7.30;89.20;;;;;;5040663;28;20442;-80
2022/03/05 11:36:38;;;;;;;8.60;3.93;;;7.20;87.80;;;;;;5040588;28;20179;-80
2022/03/05 11:39:15;;;;;;;9.77;4.27;;;7.00;87.60;;;;;;5040435;28;20971;-80
2022/03/05 11:41:50;;;;;;;10.03;4.80;;;6.80;88.40;;;;;;5039917;28;20411;-79
2022/03/05 11:44:17;;;;;;;6.57;3.93;;;7.00;89.60;;;;;;5040643;28;20457;-80
2022/03/05 11:46:42;;;;;;;10.23;4.37;;;7.40;88.70;;;;;;5040042;28;20789;-80
2022/03/05 11:49:11;;;;;;;5.77;3.67;;;7.60;87.00;;;;;;5040415;28;20421;-80
2022/03/05 11:51:57;;;;;;;5.83;3.87;;;7.80;85.60;;;;;;5040651;28;20199;-80
2022/03/05 11:54:24;;;;;;;9.20;4.20;;;8.10;86.20;;;;;;5040927;28;20411;-80
2022/03/05 11:57:16;;;;;;;12.87;4.60;;;8.40;86.00;;;;;;5040984;28;20482;-80
2022/03/05 11:59:51;;;;;;;6.50;3.90;;;8.70;85.70;;;;;;5041308;28;20410;-80
2022/03/05 12:02:45;;;;;;;8.87;4.83;;;8.90;85.40;;;;;;5048802;28;20420;-80
2022/03/05 12:05:36;;;;;;;7.40;4.27;;;9.20;84.40;;;;;;5055976;28;20466;-80
2022/03/05 12:08:03;;;;;;;9.90;4.20;;;9.30;82.30;;;;;;5073837;28;21101;-79
2022/03/05 12:10:29;;;;;;;7.27;4.07;;;9.30;83.80;;;;;;5057048;28;20512;-80
2022/03/05 12:12:57;;;;;;;12.77;3.97;;;9.20;82.90;;;;;;5057930;28;20414;-80
2022/03/05 12:15:35;;;;;;;7.17;4.00;;;9.10;83.60;;;;;;5056283;28;20260;-80
2022/03/05 12:18:03;;;;;;;6.43;4.00;;;9.00;83.10;;;;;;5073857;28;20418;-79
2022/03/05 12:20:34;;;;;;;7.53;4.03;;;9.00;83.20;;;;;;5055846;28;20414;-80
2022/03/05 12:23:04;;;;;;;6.73;3.90;;;9.20;83.50;;;;;;5055988;28;20414;-80
2022/03/05 12:25:34;;;;;;;5.43;3.10;;;9.30;82.90;;;;;;5056040;28;20445;-80
2022/03/05 12:28:02;;;;;;;8.93;4.53;;;9.50;82.70;;;;;;5056314;28;20406;-80
2022/03/05 12:30:37;;;;;;;9.53;4.23;;;9.70;81.20;;;;;;5055449;28;20454;-80
2022/03/05 12:33:05;;;;;;;8.00;3.67;;;10.00;79.90;;;;;;5055760;28;20413;-79
2022/03/05 12:35:31;;;;;;;8.20;3.60;;;10.30;80.20;;;;;;5055541;28;20430;-78
2022/03/05 12:37:57;;;;;;;4.50;2.80;;;10.40;80.00;;;;;;5055925;28;20422;-80
2022/03/05 12:40:24;;;;;;;8.53;3.80;;;10.10;79.60;;;;;;5055983;28;20440;-80
2022/03/05 12:42:52;;;;;;;8.13;4.10;;;9.60;79.60;;;;;;5055955;28;20407;-80
2022/03/05 12:45:37;;;;;;;6.40;3.93;;;9.10;80.00;;;;;;5056168;28;20469;-80